sensor_id;sensor_type;location;lat;lon;timestamp;P1;durP1;ratioP1;P2;durP2;ratioP2
26034;SDS011;13809;48.632;11.576;2023-09-07T00:01:45;5.60;;;3.37;;
26034;SDS011;13809;48.632;11.576;2023-09-07T00:06:49;3.73;;;3.43;;
26034;SDS011;13809;48.632;11.576;2023-09-07T00:11:52;3.87;;;3.57;;
26034;SDS011;13809;48.632;11.576;2023-09-07T00:16:57;4.07;;;3.73;;
26034;SDS011;13809;48.632;11.576;2023-09-07T00:22:00;3.80;;;3.50;;
26034;SDS011;13809;48.632;11.576;2023-09-07T00:27:04;3.47;;;3.27;;
26034;SDS011;13809;48.632;11.576;2023-09-07T00:32:10;3.90;;;3.70;;
26034;SDS011;13809;48.632;11.576;2023-09-07T00:37:13;3.90;;;3.60;;
26034;SDS011;13809;48.632;11.576;2023-09-07T00:42:17;4.43;;;3.40;;
26034;SDS011;13809;48.632;11.576;2023-09-07T00:47:21;3.70;;;3.50;;
26034;SDS011;13809;48.632;11.576;2023-09-07T00:52:25;3.77;;;3.50;;
26034;SDS011;13809;48.632;11.576;2023-09-07T00:57:29;3.97;;;3.67;;
26034;SDS011;13809;48.632;11.576;2023-09-07T01:02:34;3.90;;;3.60;;
26034;SDS011;13809;48.632;11.576;2023-09-07T01:07:40;4.27;;;3.97;;
26034;SDS011;13809;48.632;11.576;2023-09-07T01:12:48;3.40;;;3.20;;
26034;SDS011;13809;48.632;11.576;2023-09-07T01:17:53;4.77;;;4.23;;
26034;SDS011;13809;48.632;11.576;2023-09-07T01:23:15;4.37;;;4.03;;
26034;SDS011;13809;48.632;11.576;2023-09-07T01:28:19;3.67;;;3.47;;
26034;SDS011;13809;48.632;11.576;2023-09-07T01:33:22;3.87;;;3.63;;
26034;SDS011;13809;48.632;11.576;2023-09-07T01:38:27;3.53;;;3.33;;
26034;SDS011;13809;48.632;11.576;2023-09-07T01:43:31;3.23;;;3.03;;
26034;SDS011;13809;48.632;11.576;2023-09-07T01:48:35;4.13;;;3.83;;
26034;SDS011;13809;48.632;11.576;2023-09-07T01:53:40;3.80;;;3.50;;
26034;SDS011;13809;48.632;11.576;2023-09-07T01:58:43;3.80;;;3.50;;
26034;SDS011;13809;48.632;11.576;2023-09-07T02:03:46;3.80;;;3.50;;
26034;SDS011;13809;48.632;11.576;2023-09-07T02:08:51;3.50;;;3.30;;
26034;SDS011;13809;48.632;11.576;2023-09-07T02:13:54;3.93;;;3.63;;
26034;SDS011;13809;48.632;11.576;2023-09-07T02:19:00;3.40;;;3.10;;
26034;SDS011;13809;48.632;11.576;2023-09-07T02:24:07;4.33;;;3.73;;
26034;SDS011;13809;48.632;11.576;2023-09-07T02:29:11;4.23;;;3.63;;
26034;SDS011;13809;48.632;11.576;2023-09-07T02:34:14;4.10;;;3.80;;
26034;SDS011;13809;48.632;11.576;2023-09-07T02:39:18;3.67;;;3.37;;
26034;SDS011;13809;48.632;11.576;2023-09-07T02:44:21;3.90;;;3.60;;
26034;SDS011;13809;48.632;11.576;2023-09-07T02:49:25;3.80;;;3.50;;
26034;SDS011;13809;48.632;11.576;2023-09-07T02:54:29;3.40;;;3.20;;
26034;SDS011;13809;48.632;11.576;2023-09-07T02:59:32;3.43;;;3.23;;
26034;SDS011;13809;48.632;11.576;2023-09-07T03:04:36;3.60;;;3.40;;
26034;SDS011;13809;48.632;11.576;2023-09-07T03:09:40;4.10;;;3.80;;
26034;SDS011;13809;48.632;11.576;2023-09-07T03:14:45;4.07;;;3.60;;
26034;SDS011;13809;48.632;11.576;2023-09-07T03:19:49;3.90;;;3.60;;
26034;SDS011;13809;48.632;11.576;2023-09-07T03:24:54;4.13;;;3.73;;
26034;SDS011;13809;48.632;11.576;2023-09-07T03:29:57;3.87;;;3.57;;
26034;SDS011;13809;48.632;11.576;2023-09-07T03:35:02;3.40;;;3.20;;
26034;SDS011;13809;48.632;11.576;2023-09-07T03:40:09;3.97;;;3.67;;
26034;SDS011;13809;48.632;11.576;2023-09-07T03:45:13;4.00;;;3.70;;
26034;SDS011;13809;48.632;11.576;2023-09-07T03:50:16;4.07;;;3.67;;
26034;SDS011;13809;48.632;11.576;2023-09-07T03:55:21;3.53;;;3.10;;
26034;SDS011;13809;48.632;11.576;2023-09-07T04:00:25;3.80;;;3.40;;
26034;SDS011;13809;48.632;11.576;2023-09-07T04:05:28;3.00;;;2.80;;
26034;SDS011;13809;48.632;11.576;2023-09-07T04:10:35;2.90;;;2.70;;
26034;SDS011;13809;48.632;11.576;2023-09-07T04:15:41;3.30;;;3.10;;
26034;SDS011;13809;48.632;11.576;2023-09-07T04:20:45;3.80;;;3.07;;
26034;SDS011;13809;48.632;11.576;2023-09-07T04:25:50;3.30;;;3.00;;
26034;SDS011;13809;48.632;11.576;2023-09-07T04:30:53;3.43;;;3.17;;
26034;SDS011;13809;48.632;11.576;2023-09-07T04:35:57;3.53;;;3.23;;
26034;SDS011;13809;48.632;11.576;2023-09-07T04:41:06;3.10;;;2.90;;
26034;SDS011;13809;48.632;11.576;2023-09-07T04:46:10;3.90;;;3.50;;
26034;SDS011;13809;48.632;11.576;2023-09-07T04:51:13;4.63;;;2.73;;
26034;SDS011;13809;48.632;11.576;2023-09-07T04:56:19;3.50;;;3.20;;
26034;SDS011;13809;48.632;11.576;2023-09-07T05:01:23;3.73;;;3.40;;
26034;SDS011;13809;48.632;11.576;2023-09-07T05:06:27;3.30;;;3.10;;
26034;SDS011;13809;48.632;11.576;2023-09-07T05:11:32;3.33;;;3.13;;
26034;SDS011;13809;48.632;11.576;2023-09-07T05:16:36;3.20;;;3.00;;
26034;SDS011;13809;48.632;11.576;2023-09-07T05:21:39;3.10;;;2.83;;
26034;SDS011;13809;48.632;11.576;2023-09-07T05:26:43;5.43;;;3.90;;
26034;SDS011;13809;48.632;11.576;2023-09-07T05:31:47;3.60;;;3.40;;
26034;SDS011;13809;48.632;11.576;2023-09-07T05:36:50;3.97;;;3.67;;
26034;SDS011;13809;48.632;11.576;2023-09-07T05:41:54;4.40;;;3.33;;
26034;SDS011;13809;48.632;11.576;2023-09-07T05:46:58;5.03;;;4.30;;
26034;SDS011;13809;48.632;11.576;2023-09-07T05:52:04;3.80;;;3.50;;
26034;SDS011;13809;48.632;11.576;2023-09-07T05:57:11;6.33;;;3.90;;
26034;SDS011;13809;48.632;11.576;2023-09-07T06:02:14;4.30;;;3.90;;
26034;SDS011;13809;48.632;11.576;2023-09-07T06:07:18;6.47;;;4.77;;
26034;SDS011;13809;48.632;11.576;2023-09-07T06:12:22;7.40;;;5.60;;
26034;SDS011;13809;48.632;11.576;2023-09-07T06:17:25;7.10;;;6.00;;
26034;SDS011;13809;48.632;11.576;2023-09-07T06:22:29;6.80;;;6.20;;
26034;SDS011;13809;48.632;11.576;2023-09-07T06:27:33;6.53;;;6.00;;
26034;SDS011;13809;48.632;11.576;2023-09-07T06:32:37;7.67;;;6.97;;
26034;SDS011;13809;48.632;11.576;2023-09-07T06:37:41;7.43;;;6.83;;
26034;SDS011;13809;48.632;11.576;2023-09-07T06:42:46;8.03;;;7.43;;
26034;SDS011;13809;48.632;11.576;2023-09-07T06:47:50;7.77;;;7.17;;
26034;SDS011;13809;48.632;11.576;2023-09-07T06:52:54;8.20;;;7.50;;
26034;SDS011;13809;48.632;11.576;2023-09-07T06:57:58;7.93;;;7.20;;
26034;SDS011;13809;48.632;11.576;2023-09-07T07:03:03;7.67;;;7.07;;
26034;SDS011;13809;48.632;11.576;2023-09-07T07:08:06;8.00;;;7.30;;
26034;SDS011;13809;48.632;11.576;2023-09-07T07:13:11;6.83;;;6.23;;
26034;SDS011;13809;48.632;11.576;2023-09-07T07:18:15;7.50;;;6.90;;
26034;SDS011;13809;48.632;11.576;2023-09-07T07:23:18;6.47;;;5.97;;
26034;SDS011;13809;48.632;11.576;2023-09-07T07:28:23;6.67;;;5.70;;
26034;SDS011;13809;48.632;11.576;2023-09-07T07:33:26;6.10;;;5.60;;
26034;SDS011;13809;48.632;11.576;2023-09-07T07:38:29;6.07;;;5.57;;
26034;SDS011;13809;48.632;11.576;2023-09-07T07:43:34;5.53;;;5.10;;
26034;SDS011;13809;48.632;11.576;2023-09-07T07:48:37;4.90;;;4.50;;
26034;SDS011;13809;48.632;11.576;2023-09-07T07:53:40;5.33;;;4.00;;
26034;SDS011;13809;48.632;11.576;2023-09-07T07:58:45;4.40;;;4.10;;
26034;SDS011;13809;48.632;11.576;2023-09-07T08:03:48;3.90;;;3.60;;
26034;SDS011;13809;48.632;11.576;2023-09-07T08:08:51;3.60;;;3.37;;
26034;SDS011;13809;48.632;11.576;2023-09-07T08:13:56;3.97;;;3.67;;
26034;SDS011;13809;48.632;11.576;2023-09-07T08:19:00;3.70;;;3.40;;
26034;SDS011;13809;48.632;11.576;2023-09-07T08:24:05;4.10;;;3.70;;
26034;SDS011;13809;48.632;11.576;2023-09-07T08:29:10;3.77;;;3.47;;
26034;SDS011;13809;48.632;11.576;2023-09-07T08:34:13;3.60;;;3.37;;
26034;SDS011;13809;48.632;11.576;2023-09-07T08:39:17;3.67;;;3.37;;
26034;SDS011;13809;48.632;11.576;2023-09-07T08:44:25;3.80;;;3.50;;
26034;SDS011;13809;48.632;11.576;2023-09-07T08:49:30;4.30;;;3.57;;
26034;SDS011;13809;48.632;11.576;2023-09-07T08:54:34;3.33;;;3.00;;
26034;SDS011;13809;48.632;11.576;2023-09-07T08:59:41;3.87;;;3.43;;
26034;SDS011;13809;48.632;11.576;2023-09-07T09:04:44;3.60;;;3.30;;
26034;SDS011;13809;48.632;11.576;2023-09-07T09:09:47;3.63;;;3.43;;
26034;SDS011;13809;48.632;11.576;2023-09-07T09:14:52;3.60;;;3.40;;
26034;SDS011;13809;48.632;11.576;2023-09-07T09:19:56;3.87;;;3.57;;
26034;SDS011;13809;48.632;11.576;2023-09-07T09:25:02;5.73;;;3.63;;
26034;SDS011;13809;48.632;11.576;2023-09-07T09:30:09;3.80;;;3.37;;
26034;SDS011;13809;48.632;11.576;2023-09-07T09:35:13;3.70;;;3.40;;
26034;SDS011;13809;48.632;11.576;2023-09-07T09:40:19;3.33;;;3.03;;
26034;SDS011;13809;48.632;11.576;2023-09-07T09:45:24;3.63;;;3.33;;
26034;SDS011;13809;48.632;11.576;2023-09-07T09:50:29;3.63;;;3.33;;
26034;SDS011;13809;48.632;11.576;2023-09-07T09:55:34;3.20;;;3.00;;
26034;SDS011;13809;48.632;11.576;2023-09-07T10:00:40;3.80;;;3.50;;
26034;SDS011;13809;48.632;11.576;2023-09-07T10:05:44;3.90;;;3.50;;
26034;SDS011;13809;48.632;11.576;2023-09-07T10:10:48;4.00;;;3.70;;
26034;SDS011;13809;48.632;11.576;2023-09-07T10:16:01;3.67;;;3.37;;
26034;SDS011;13809;48.632;11.576;2023-09-07T10:21:06;3.80;;;3.20;;
26034;SDS011;13809;48.632;11.576;2023-09-07T10:26:10;3.67;;;3.37;;
26034;SDS011;13809;48.632;11.576;2023-09-07T10:31:16;3.20;;;3.00;;
26034;SDS011;13809;48.632;11.576;2023-09-07T10:36:20;3.40;;;3.20;;
26034;SDS011;13809;48.632;11.576;2023-09-07T10:41:24;3.70;;;3.40;;
26034;SDS011;13809;48.632;11.576;2023-09-07T10:46:29;3.60;;;3.40;;
26034;SDS011;13809;48.632;11.576;2023-09-07T10:51:32;3.50;;;3.30;;
26034;SDS011;13809;48.632;11.576;2023-09-07T10:56:35;3.50;;;3.30;;
26034;SDS011;13809;48.632;11.576;2023-09-07T11:01:39;3.47;;;3.27;;
26034;SDS011;13809;48.632;11.576;2023-09-07T11:06:43;3.33;;;3.13;;
26034;SDS011;13809;48.632;11.576;2023-09-07T11:11:47;3.83;;;3.40;;
26034;SDS011;13809;48.632;11.576;2023-09-07T11:16:51;4.83;;;3.40;;
26034;SDS011;13809;48.632;11.576;2023-09-07T11:21:58;3.57;;;3.27;;
26034;SDS011;13809;48.632;11.576;2023-09-07T11:27:01;3.87;;;3.57;;
26034;SDS011;13809;48.632;11.576;2023-09-07T11:32:07;3.40;;;3.20;;
26034;SDS011;13809;48.632;11.576;2023-09-07T11:37:11;3.63;;;3.30;;
26034;SDS011;13809;48.632;11.576;2023-09-07T11:42:14;3.80;;;3.50;;
26034;SDS011;13809;48.632;11.576;2023-09-07T11:47:19;3.47;;;3.27;;
26034;SDS011;13809;48.632;11.576;2023-09-07T11:52:22;3.73;;;3.43;;
26034;SDS011;13809;48.632;11.576;2023-09-07T11:57:26;3.60;;;3.40;;
26034;SDS011;13809;48.632;11.576;2023-09-07T12:02:30;3.60;;;3.30;;
26034;SDS011;13809;48.632;11.576;2023-09-07T12:07:34;3.83;;;3.03;;
26034;SDS011;13809;48.632;11.576;2023-09-07T12:12:37;3.80;;;3.57;;
26034;SDS011;13809;48.632;11.576;2023-09-07T12:17:42;3.70;;;3.33;;
26034;SDS011;13809;48.632;11.576;2023-09-07T12:22:45;3.63;;;3.33;;
26034;SDS011;13809;48.632;11.576;2023-09-07T12:27:50;3.80;;;3.50;;
26034;SDS011;13809;48.632;11.576;2023-09-07T12:32:56;3.50;;;3.30;;
26034;SDS011;13809;48.632;11.576;2023-09-07T12:38:00;3.47;;;3.27;;
26034;SDS011;13809;48.632;11.576;2023-09-07T12:43:04;3.60;;;3.23;;
26034;SDS011;13809;48.632;11.576;2023-09-07T12:48:10;3.17;;;2.97;;
26034;SDS011;13809;48.632;11.576;2023-09-07T12:53:13;3.30;;;3.00;;
26034;SDS011;13809;48.632;11.576;2023-09-07T12:58:17;4.03;;;3.40;;
26034;SDS011;13809;48.632;11.576;2023-09-07T13:03:22;3.43;;;3.13;;
26034;SDS011;13809;48.632;11.576;2023-09-07T13:08:25;3.43;;;3.23;;
26034;SDS011;13809;48.632;11.576;2023-09-07T13:13:30;3.37;;;3.17;;
26034;SDS011;13809;48.632;11.576;2023-09-07T13:18:35;3.33;;;3.13;;
26034;SDS011;13809;48.632;11.576;2023-09-07T13:23:39;3.33;;;3.07;;
26034;SDS011;13809;48.632;11.576;2023-09-07T13:28:43;3.63;;;3.40;;
26034;SDS011;13809;48.632;11.576;2023-09-07T13:33:48;4.40;;;3.30;;
26034;SDS011;13809;48.632;11.576;2023-09-07T13:38:52;3.27;;;3.00;;
26034;SDS011;13809;48.632;11.576;2023-09-07T13:43:58;3.10;;;2.90;;
26034;SDS011;13809;48.632;11.576;2023-09-07T13:49:03;3.40;;;3.20;;
26034;SDS011;13809;48.632;11.576;2023-09-07T13:54:06;3.20;;;3.00;;
26034;SDS011;13809;48.632;11.576;2023-09-07T13:59:10;3.40;;;3.20;;
26034;SDS011;13809;48.632;11.576;2023-09-07T14:04:15;4.17;;;3.40;;
26034;SDS011;13809;48.632;11.576;2023-09-07T14:09:18;3.77;;;3.47;;
26034;SDS011;13809;48.632;11.576;2023-09-07T14:14:24;3.73;;;3.37;;
26034;SDS011;13809;48.632;11.576;2023-09-07T14:19:29;3.40;;;3.20;;
26034;SDS011;13809;48.632;11.576;2023-09-07T14:24:33;3.67;;;3.17;;
26034;SDS011;13809;48.632;11.576;2023-09-07T14:29:36;3.63;;;3.27;;
26034;SDS011;13809;48.632;11.576;2023-09-07T14:34:41;3.30;;;3.10;;
26034;SDS011;13809;48.632;11.576;2023-09-07T14:39:44;3.37;;;3.17;;
26034;SDS011;13809;48.632;11.576;2023-09-07T14:44:50;3.37;;;3.17;;
26034;SDS011;13809;48.632;11.576;2023-09-07T14:49:56;3.90;;;3.57;;
26034;SDS011;13809;48.632;11.576;2023-09-07T14:54:59;4.40;;;3.87;;
26034;SDS011;13809;48.632;11.576;2023-09-07T15:00:03;3.43;;;3.13;;
26034;SDS011;13809;48.632;11.576;2023-09-07T15:05:08;3.73;;;3.43;;
26034;SDS011;13809;48.632;11.576;2023-09-07T15:10:11;3.80;;;3.50;;
26034;SDS011;13809;48.632;11.576;2023-09-07T15:15:15;4.03;;;3.37;;
26034;SDS011;13809;48.632;11.576;2023-09-07T15:20:20;3.57;;;3.27;;
26034;SDS011;13809;48.632;11.576;2023-09-07T15:25:24;4.20;;;3.30;;
26034;SDS011;13809;48.632;11.576;2023-09-07T15:30:28;3.20;;;3.00;;
26034;SDS011;13809;48.632;11.576;2023-09-07T15:35:32;5.40;;;3.30;;
26034;SDS011;13809;48.632;11.576;2023-09-07T15:40:36;3.43;;;3.23;;
26034;SDS011;13809;48.632;11.576;2023-09-07T15:45:40;3.47;;;3.20;;
26034;SDS011;13809;48.632;11.576;2023-09-07T15:50:44;3.40;;;3.20;;
26034;SDS011;13809;48.632;11.576;2023-09-07T15:55:47;3.40;;;3.20;;
26034;SDS011;13809;48.632;11.576;2023-09-07T16:00:51;3.57;;;3.27;;
26034;SDS011;13809;48.632;11.576;2023-09-07T16:05:55;3.23;;;3.03;;
26034;SDS011;13809;48.632;11.576;2023-09-07T16:10:59;3.20;;;2.90;;
26034;SDS011;13809;48.632;11.576;2023-09-07T16:16:02;3.37;;;3.07;;
26034;SDS011;13809;48.632;11.576;2023-09-07T16:21:07;3.30;;;3.10;;
26034;SDS011;13809;48.632;11.576;2023-09-07T16:26:16;3.23;;;3.03;;
26034;SDS011;13809;48.632;11.576;2023-09-07T16:31:20;4.47;;;3.10;;
26034;SDS011;13809;48.632;11.576;2023-09-07T16:36:25;3.40;;;3.10;;
26034;SDS011;13809;48.632;11.576;2023-09-07T16:41:28;4.20;;;3.80;;
26034;SDS011;13809;48.632;11.576;2023-09-07T16:46:31;4.10;;;3.70;;
26034;SDS011;13809;48.632;11.576;2023-09-07T16:51:36;3.90;;;3.60;;
26034;SDS011;13809;48.632;11.576;2023-09-07T16:56:39;3.80;;;3.23;;
26034;SDS011;13809;48.632;11.576;2023-09-07T17:01:42;3.87;;;3.57;;
26034;SDS011;13809;48.632;11.576;2023-09-07T17:06:47;4.03;;;3.70;;
26034;SDS011;13809;48.632;11.576;2023-09-07T17:12:06;4.93;;;3.57;;
26034;SDS011;13809;48.632;11.576;2023-09-07T17:17:09;4.70;;;4.40;;
26034;SDS011;13809;48.632;11.576;2023-09-07T17:22:14;4.73;;;4.30;;
26034;SDS011;13809;48.632;11.576;2023-09-07T17:27:18;5.30;;;4.90;;
26034;SDS011;13809;48.632;11.576;2023-09-07T17:32:21;4.73;;;4.33;;
26034;SDS011;13809;48.632;11.576;2023-09-07T17:37:27;4.40;;;4.00;;
26034;SDS011;13809;48.632;11.576;2023-09-07T17:42:31;4.43;;;4.13;;
26034;SDS011;13809;48.632;11.576;2023-09-07T17:47:34;4.90;;;4.00;;
26034;SDS011;13809;48.632;11.576;2023-09-07T17:52:38;4.53;;;4.13;;
26034;SDS011;13809;48.632;11.576;2023-09-07T17:57:42;4.93;;;4.40;;
26034;SDS011;13809;48.632;11.576;2023-09-07T18:02:46;4.33;;;4.03;;
26034;SDS011;13809;48.632;11.576;2023-09-07T18:07:51;6.87;;;4.30;;
26034;SDS011;13809;48.632;11.576;2023-09-07T18:12:56;4.80;;;4.40;;
26034;SDS011;13809;48.632;11.576;2023-09-07T18:17:59;5.20;;;4.33;;
26034;SDS011;13809;48.632;11.576;2023-09-07T18:23:04;4.40;;;4.10;;
26034;SDS011;13809;48.632;11.576;2023-09-07T18:28:08;4.60;;;3.97;;
26034;SDS011;13809;48.632;11.576;2023-09-07T18:33:12;4.63;;;4.23;;
26034;SDS011;13809;48.632;11.576;2023-09-07T18:38:16;4.50;;;4.10;;
26034;SDS011;13809;48.632;11.576;2023-09-07T18:43:20;5.30;;;4.23;;
26034;SDS011;13809;48.632;11.576;2023-09-07T18:48:23;4.20;;;3.63;;
26034;SDS011;13809;48.632;11.576;2023-09-07T18:53:28;5.27;;;4.33;;
26034;SDS011;13809;48.632;11.576;2023-09-07T18:58:31;4.87;;;4.47;;
26034;SDS011;13809;48.632;11.576;2023-09-07T19:03:35;4.60;;;4.10;;
26034;SDS011;13809;48.632;11.576;2023-09-07T19:08:40;4.70;;;4.30;;
26034;SDS011;13809;48.632;11.576;2023-09-07T19:13:44;4.53;;;4.23;;
26034;SDS011;13809;48.632;11.576;2023-09-07T19:18:47;4.70;;;4.30;;
26034;SDS011;13809;48.632;11.576;2023-09-07T19:23:51;4.77;;;4.17;;
26034;SDS011;13809;48.632;11.576;2023-09-07T19:28:55;4.87;;;4.27;;
26034;SDS011;13809;48.632;11.576;2023-09-07T19:33:58;5.33;;;4.77;;
26034;SDS011;13809;48.632;11.576;2023-09-07T19:39:04;5.20;;;4.70;;
26034;SDS011;13809;48.632;11.576;2023-09-07T19:44:07;5.33;;;4.90;;
26034;SDS011;13809;48.632;11.576;2023-09-07T19:49:10;5.23;;;4.73;;
26034;SDS011;13809;48.632;11.576;2023-09-07T19:54:17;5.33;;;4.93;;
26034;SDS011;13809;48.632;11.576;2023-09-07T19:59:20;5.10;;;4.70;;
26034;SDS011;13809;48.632;11.576;2023-09-07T20:04:24;5.93;;;5.43;;
26034;SDS011;13809;48.632;11.576;2023-09-07T20:09:29;5.87;;;5.37;;
26034;SDS011;13809;48.632;11.576;2023-09-07T20:14:32;5.70;;;5.17;;
26034;SDS011;13809;48.632;11.576;2023-09-07T20:19:41;5.50;;;5.10;;
26034;SDS011;13809;48.632;11.576;2023-09-07T20:24:46;5.53;;;5.13;;
26034;SDS011;13809;48.632;11.576;2023-09-07T20:29:50;5.87;;;5.37;;
26034;SDS011;13809;48.632;11.576;2023-09-07T20:34:53;5.83;;;5.43;;
26034;SDS011;13809;48.632;11.576;2023-09-07T20:39:57;6.30;;;5.70;;
26034;SDS011;13809;48.632;11.576;2023-09-07T20:45:00;5.60;;;5.10;;
26034;SDS011;13809;48.632;11.576;2023-09-07T20:50:05;5.63;;;5.23;;
26034;SDS011;13809;48.632;11.576;2023-09-07T20:55:10;5.97;;;5.47;;
26034;SDS011;13809;48.632;11.576;2023-09-07T21:00:14;6.50;;;5.63;;
26034;SDS011;13809;48.632;11.576;2023-09-07T21:05:19;5.67;;;5.17;;
26034;SDS011;13809;48.632;11.576;2023-09-07T21:10:24;5.60;;;5.10;;
26034;SDS011;13809;48.632;11.576;2023-09-07T21:15:28;6.27;;;5.77;;
26034;SDS011;13809;48.632;11.576;2023-09-07T21:20:31;5.57;;;5.13;;
26034;SDS011;13809;48.632;11.576;2023-09-07T21:25:36;7.00;;;6.40;;
26034;SDS011;13809;48.632;11.576;2023-09-07T21:30:39;6.37;;;5.83;;
26034;SDS011;13809;48.632;11.576;2023-09-07T21:35:42;6.27;;;5.77;;
26034;SDS011;13809;48.632;11.576;2023-09-07T21:40:50;5.53;;;5.13;;
26034;SDS011;13809;48.632;11.576;2023-09-07T21:45:54;5.57;;;5.10;;
26034;SDS011;13809;48.632;11.576;2023-09-07T21:50:57;6.70;;;6.10;;
26034;SDS011;13809;48.632;11.576;2023-09-07T21:56:02;6.13;;;5.53;;
26034;SDS011;13809;48.632;11.576;2023-09-07T22:01:06;6.37;;;5.73;;
26034;SDS011;13809;48.632;11.576;2023-09-07T22:06:09;6.60;;;6.00;;
26034;SDS011;13809;48.632;11.576;2023-09-07T22:11:14;6.40;;;5.80;;
26034;SDS011;13809;48.632;11.576;2023-09-07T22:16:17;5.80;;;5.30;;
26034;SDS011;13809;48.632;11.576;2023-09-07T22:21:20;5.73;;;5.20;;
26034;SDS011;13809;48.632;11.576;2023-09-07T22:26:27;5.37;;;4.97;;
26034;SDS011;13809;48.632;11.576;2023-09-07T22:31:30;5.47;;;4.97;;
26034;SDS011;13809;48.632;11.576;2023-09-07T22:36:33;8.07;;;6.17;;
26034;SDS011;13809;48.632;11.576;2023-09-07T22:41:38;6.60;;;6.00;;
26034;SDS011;13809;48.632;11.576;2023-09-07T22:46:42;6.23;;;5.73;;
26034;SDS011;13809;48.632;11.576;2023-09-07T22:51:45;6.03;;;5.53;;
26034;SDS011;13809;48.632;11.576;2023-09-07T22:56:50;5.33;;;4.93;;
26034;SDS011;13809;48.632;11.576;2023-09-07T23:01:54;5.63;;;5.23;;
26034;SDS011;13809;48.632;11.576;2023-09-07T23:06:58;6.57;;;5.87;;
26034;SDS011;13809;48.632;11.576;2023-09-07T23:12:03;6.40;;;5.90;;
26034;SDS011;13809;48.632;11.576;2023-09-07T23:17:06;6.13;;;5.60;;
26034;SDS011;13809;48.632;11.576;2023-09-07T23:22:10;6.67;;;6.10;;
26034;SDS011;13809;48.632;11.576;2023-09-07T23:27:14;5.90;;;5.40;;
26034;SDS011;13809;48.632;11.576;2023-09-07T23:32:18;5.70;;;5.30;;
26034;SDS011;13809;48.632;11.576;2023-09-07T23:37:21;6.43;;;5.40;;
26034;SDS011;13809;48.632;11.576;2023-09-07T23:42:26;6.47;;;5.93;;
26034;SDS011;13809;48.632;11.576;2023-09-07T23:47:29;5.67;;;5.23;;
26034;SDS011;13809;48.632;11.576;2023-09-07T23:52:32;6.77;;;6.17;;
26034;SDS011;13809;48.632;11.576;2023-09-07T23:57:37;5.80;;;5.20;;
